createdAt,value
2018-09-18T00:00:13.987Z,53.6
2018-09-18T00:01:04.559Z,53.6
2018-09-18T00:01:54.844Z,53.6
2018-09-18T00:02:44.668Z,53.6
2018-09-18T00:03:34.995Z,53.6
2018-09-18T00:04:24.798Z,53.6
2018-09-18T00:05:14.577Z,53.6
2018-09-18T00:06:04.927Z,53.5
2018-09-18T00:06:54.717Z,53.6
2018-09-18T00:07:44.872Z,53.5
2018-09-18T00:08:35.122Z,53.5
2018-09-18T00:09:24.889Z,53.5
2018-09-18T00:10:15.240Z,53.5
2018-09-18T00:11:05.294Z,53.5
2018-09-18T00:11:55.093Z,53.5
2018-09-18T00:12:45.427Z,53.5
2018-09-18T00:13:34.936Z,53.5
2018-09-18T00:14:25.328Z,53.5
2018-09-18T00:15:15.317Z,53.5
2018-09-18T00:16:05.149Z,53.4
2018-09-18T00:16:55.794Z,53.4
2018-09-18T00:17:45.243Z,53.4
2018-09-18T00:18:35.858Z,53.4
2018-09-18T00:19:25.639Z,53.4
2018-09-18T00:20:15.719Z,53.4
2018-09-18T00:21:06.129Z,53.4
2018-09-18T00:21:55.278Z,53.4
2018-09-18T00:22:45.914Z,53.4
2018-09-18T00:23:35.961Z,53.4
2018-09-18T00:24:26.328Z,53.4
2018-09-18T00:25:16.119Z,53.4
2018-09-18T00:26:05.879Z,53.4
2018-09-18T00:26:55.970Z,53.4
2018-09-18T00:27:46.572Z,53.4
2018-09-18T00:28:36.333Z,53.4
2018-09-18T00:29:26.697Z,53.4
2018-09-18T00:30:16.761Z,53.4
2018-09-18T00:31:06.836Z,53.4
2018-09-18T00:31:56.845Z,53.4
2018-09-18T00:32:46.676Z,53.4
2018-09-18T00:33:36.996Z,53.4
2018-09-18T00:34:26.798Z,53.3
2018-09-18T00:35:16.880Z,53.4
2018-09-18T00:36:06.633Z,53.3
2018-09-18T00:36:57.003Z,53.3
2018-09-18T00:56:30.924Z,53.2
2018-09-18T00:57:20.961Z,53.2
2018-09-18T00:58:11.284Z,53.2
2018-09-18T00:59:01.614Z,53.2
2018-09-18T00:59:51.120Z,53.2
2018-09-18T01:00:40.918Z,53.2
2018-09-18T01:01:31.495Z,53.2
2018-09-18T01:02:21.296Z,53.2
2018-09-18T01:03:11.086Z,53.2
2018-09-18T01:04:01.667Z,53.2
2018-09-18T01:04:51.509Z,53.2
2018-09-18T01:05:41.555Z,53.1
2018-09-18T01:06:31.873Z,53.2
2018-09-18T01:07:22.228Z,53.1
2018-09-18T01:08:12.020Z,53.1
2018-09-18T01:09:01.907Z,53.1
2018-09-18T01:09:51.881Z,53.1
2018-09-18T01:10:42.228Z,53.1
2018-09-18T01:11:31.955Z,53.1
2018-09-18T01:12:22.189Z,53.1
2018-09-18T01:13:12.141Z,53.1
2018-09-18T01:14:02.422Z,53.1
2018-09-18T01:14:52.542Z,53.1
2018-09-18T01:15:42.652Z,53.1
2018-09-18T01:16:32.908Z,53.1
2018-09-18T01:17:22.990Z,53.1
2018-09-18T01:18:12.808Z,53.1
2018-09-18T01:19:02.570Z,53.1
2018-09-18T01:19:52.338Z,53.1
2018-09-18T01:20:42.733Z,53.1
2018-09-18T01:21:32.430Z,53.1
2018-09-18T01:22:23.156Z,53.1
2018-09-18T01:23:12.872Z,53.1
2018-09-18T01:24:02.454Z,53
2018-09-18T01:24:53.118Z,53
2018-09-18T01:25:43.095Z,53.1
2018-09-18T01:26:33.167Z,53
2018-09-18T01:27:23.204Z,53
2018-09-18T01:28:13.527Z,53
2018-09-18T01:29:03.623Z,53
2018-09-18T01:29:53.117Z,53
2018-09-18T01:30:43.479Z,53
2018-09-18T01:31:33.526Z,53
2018-09-18T01:32:23.567Z,53
2018-09-18T01:33:13.914Z,53
2018-09-18T01:34:03.702Z,53
2018-09-18T01:34:53.209Z,53
2018-09-18T01:35:43.567Z,52.9
2018-09-18T01:36:34.186Z,52.9
2018-09-18T01:37:24.236Z,52.9
2018-09-18T01:38:14.029Z,52.9
2018-09-18T01:39:04.086Z,52.9
2018-09-18T01:39:54.171Z,52.9
2018-09-18T01:40:43.956Z,52.9
2018-09-18T01:41:34.563Z,52.9
2018-09-18T01:42:24.331Z,52.9
2018-09-18T01:43:14.125Z,52.9
2018-09-18T01:44:04.178Z,52.9
2018-09-18T01:44:54.764Z,52.9
2018-09-18T01:45:44.574Z,52.9
2018-09-18T01:46:34.666Z,52.9
2018-09-18T01:47:24.428Z,52.9
2018-09-18T01:48:14.510Z,52.9
2018-09-18T01:49:04.838Z,52.9
2018-09-18T01:49:55.226Z,52.9
2018-09-18T01:50:45.230Z,52.9
2018-09-18T01:51:34.779Z,52.9
2018-09-18T01:52:25.330Z,52.9
2018-09-18T01:53:15.165Z,52.9
2018-09-18T01:54:05.215Z,52.9
2018-09-18T01:54:55.860Z,52.9
2018-09-18T01:55:45.675Z,52.9
2018-09-18T01:56:35.405Z,52.8
2018-09-18T01:57:25.748Z,52.8
2018-09-18T01:58:16.133Z,52.8
2018-09-18T01:59:05.630Z,52.8
2018-09-18T01:59:56.197Z,52.8
2018-09-18T02:00:45.747Z,52.8
2018-09-18T02:01:35.520Z,52.8
2018-09-18T02:02:25.866Z,52.8
2018-09-18T02:03:15.922Z,52.8
2018-09-18T02:04:06.275Z,52.8
2018-09-18T02:04:56.602Z,52.8
2018-09-18T02:05:46.102Z,52.8
2018-09-18T02:06:36.170Z,52.8
2018-09-18T02:07:26.224Z,52.8
2018-09-18T02:08:16.565Z,52.8
2018-09-18T02:09:06.378Z,52.8
2018-09-18T02:09:56.789Z,52.8
2018-09-18T02:10:46.774Z,52.8
2018-09-18T02:11:36.534Z,52.8
2018-09-18T02:12:26.599Z,52.8
2018-09-18T02:13:16.949Z,52.8
2018-09-18T02:14:07.029Z,52.8
2018-09-18T02:14:57.317Z,52.8
2018-09-18T02:15:46.874Z,52.7
2018-09-18T02:16:37.207Z,52.7
2018-09-18T02:17:26.713Z,52.7
2018-09-18T02:18:17.049Z,52.7
2018-09-18T02:19:06.539Z,52.7
2018-09-18T02:19:57.435Z,52.7
2018-09-18T02:20:47.229Z,52.7
2018-09-18T02:21:37.314Z,52.7
2018-09-18T02:22:27.653Z,52.7
2018-09-18T02:23:17.919Z,52.7
2018-09-18T02:24:07.504Z,52.7
2018-09-18T02:24:57.849Z,52.6
2018-09-18T02:25:47.619Z,52.6
2018-09-18T02:26:37.679Z,52.6
2018-09-18T02:27:27.189Z,52.6
2018-09-18T02:28:18.346Z,52.6
2018-09-18T02:29:08.160Z,52.6
2018-09-18T02:29:58.215Z,52.6
2018-09-18T02:30:48.002Z,52.6
2018-09-18T02:31:38.069Z,52.6
2018-09-18T02:32:28.119Z,52.6
2018-09-18T02:33:18.482Z,52.6
2018-09-18T02:34:08.551Z,52.6
2018-09-18T02:34:58.604Z,52.6
2018-09-18T02:35:48.684Z,52.6
2018-09-18T02:36:37.885Z,52.6
2018-09-18T02:37:28.516Z,52.6
2018-09-18T02:38:18.557Z,52.6
2018-09-18T02:39:08.898Z,52.6
2018-09-18T02:39:59.011Z,52.6
2018-09-18T02:40:49.063Z,52.6
2018-09-18T02:41:39.103Z,52.6
2018-09-18T02:42:29.178Z,52.6
2018-09-18T02:43:19.291Z,52.6
2018-09-18T02:44:08.992Z,52.6
2018-09-18T02:44:59.102Z,52.5
2018-09-18T02:45:49.138Z,52.5
2018-09-18T02:46:39.202Z,52.5
2018-09-18T02:47:29.245Z,52.5
2018-09-18T02:48:19.652Z,52.5
2018-09-18T02:49:09.404Z,52.5
2018-09-18T02:49:59.760Z,52.5
2018-09-18T02:50:49.261Z,52.5
2018-09-18T02:51:39.279Z,52.5
2018-09-18T02:52:29.375Z,52.5
2018-09-18T02:53:19.414Z,52.5
2018-09-18T02:54:09.489Z,52.5
2018-09-18T02:54:59.772Z,52.5
2018-09-18T02:55:50.195Z,52.4
2018-09-18T02:56:40.189Z,52.4
2018-09-18T02:57:30.007Z,52.4
2018-09-18T02:58:20.357Z,52.4
2018-09-18T02:59:10.129Z,52.4
2018-09-18T03:00:00.161Z,52.4
2018-09-18T03:00:50.295Z,52.4
2018-09-18T03:01:40.627Z,52.4
2018-09-18T03:02:30.414Z,52.4
2018-09-18T03:03:20.177Z,52.4
2018-09-18T03:04:10.799Z,52.4
2018-09-18T03:05:00.592Z,52.4
2018-09-18T03:07:31.088Z,52.4
2018-09-18T03:15:01.359Z,52.3
2018-09-18T03:16:41.771Z,52.3
2018-09-18T03:17:31.811Z,52.3
2018-09-18T03:18:21.601Z,52.3
2018-09-18T03:19:11.958Z,52.3
2018-09-18T03:20:01.721Z,52.3
2018-09-18T03:20:52.134Z,52.3
2018-09-18T03:21:42.090Z,52.3
2018-09-18T03:22:31.604Z,52.3
2018-09-18T03:23:22.286Z,52.3
2018-09-18T03:24:12.037Z,52.3
2018-09-18T03:25:01.529Z,52.3
2018-09-18T03:25:52.531Z,52.3
2018-09-18T03:26:42.236Z,52.3
2018-09-18T03:27:33.430Z,52.3
2018-09-18T03:28:22.641Z,52.3
2018-09-18T03:29:12.688Z,52.3
2018-09-18T03:30:02.189Z,52.3
2018-09-18T03:30:52.883Z,52.3
2018-09-18T03:31:42.865Z,52.3
2018-09-18T03:32:32.945Z,52.3
2018-09-18T03:33:22.218Z,52.2
2018-09-18T03:34:12.477Z,52.2
2018-09-18T03:35:03.145Z,52.3
2018-09-18T03:35:53.616Z,52.2
2018-09-18T03:36:42.677Z,52.2
2018-09-18T03:37:33.317Z,52.2
2018-09-18T03:38:23.098Z,52.2
2018-09-18T03:39:13.422Z,52.2
2018-09-18T03:40:03.217Z,52.2
2018-09-18T03:40:53.268Z,52.2
2018-09-18T03:41:42.803Z,52.2
2018-09-18T03:42:33.779Z,52.1
2018-09-18T03:43:23.505Z,52.2
2018-09-18T03:44:13.234Z,52.1
2018-09-18T03:45:03.595Z,52.1
2018-09-18T03:45:53.640Z,52.1
2018-09-18T03:46:43.441Z,52.1
2018-09-18T03:47:34.026Z,52.1
2018-09-18T03:48:23.852Z,52.1
2018-09-18T03:49:13.932Z,52.1
2018-09-18T03:50:04.254Z,52.1
2018-09-18T03:50:53.162Z,52.1
2018-09-18T03:51:44.433Z,52.1
2018-09-18T03:52:34.160Z,52.1
2018-09-18T03:53:24.477Z,52.1
2018-09-18T03:54:14.559Z,52.1
2018-09-18T03:55:04.074Z,52.1
2018-09-18T03:55:54.669Z,52.1
2018-09-18T03:56:45.014Z,52.1
2018-09-18T03:57:34.801Z,52.1
2018-09-18T03:58:24.878Z,52
2018-09-18T03:59:14.928Z,52.1
2018-09-18T04:00:05.009Z,52
2018-09-18T04:00:54.761Z,52
2018-09-18T04:01:44.826Z,52
2018-09-18T04:02:35.424Z,52
2018-09-18T04:03:25.286Z,52
2018-09-18T04:04:15.031Z,52
2018-09-18T04:05:05.396Z,52
2018-09-18T04:05:55.446Z,52
2018-09-18T04:06:45.517Z,52
2018-09-18T04:07:35.518Z,52
2018-09-18T04:08:25.364Z,52
2018-09-18T04:16:46.255Z,51.9
2018-09-18T04:17:35.985Z,51.9
2018-09-18T04:18:25.812Z,51.9
2018-09-18T04:19:16.255Z,51.9
2018-09-18T04:20:06.205Z,51.9
2018-09-18T04:20:56.575Z,51.9
2018-09-18T04:21:46.634Z,51.9
2018-09-18T04:22:36.424Z,51.9
2018-09-18T04:23:27.071Z,51.9
2018-09-18T04:24:16.561Z,51.9
2018-09-18T04:25:06.594Z,51.8
2018-09-18T04:25:56.930Z,51.9
2018-09-18T04:26:46.735Z,51.9
2018-09-18T04:27:36.741Z,51.8
2018-09-18T04:28:27.147Z,51.8
2018-09-18T04:29:16.902Z,51.8
2018-09-18T04:30:06.687Z,51.8
2018-09-18T04:30:57.307Z,51.8
2018-09-18T04:31:47.121Z,51.8
2018-09-18T04:32:37.186Z,51.8
2018-09-18T04:33:26.912Z,51.8
2018-09-18T04:34:17.586Z,51.8
2018-09-18T04:35:07.059Z,51.8
2018-09-18T04:35:57.408Z,51.8
2018-09-18T04:36:47.737Z,51.8
2018-09-18T04:37:37.834Z,51.8
2018-09-18T04:38:27.550Z,51.8
2018-09-18T04:39:18.136Z,51.8
2018-09-18T04:40:07.702Z,51.8
2018-09-18T04:40:57.793Z,51.8
2018-09-18T04:41:48.128Z,51.8
2018-09-18T04:42:37.631Z,51.8
2018-09-18T04:43:27.668Z,51.8
2018-09-18T04:44:18.028Z,51.7
2018-09-18T04:45:08.363Z,51.7
2018-09-18T04:45:59.348Z,51.7
2018-09-18T04:46:48.256Z,51.7
2018-09-18T04:47:38.260Z,51.7
2018-09-18T04:48:28.843Z,51.7
2018-09-18T04:49:18.413Z,51.7
2018-09-18T04:50:08.460Z,51.7
2018-09-18T04:50:58.803Z,51.7
2018-09-18T04:51:48.867Z,51.7
2018-09-18T04:52:38.925Z,51.7
2018-09-18T04:53:29.535Z,51.6
2018-09-18T04:54:18.584Z,51.6
2018-09-18T04:55:09.698Z,51.6
2018-09-18T04:55:59.197Z,51.6
2018-09-18T04:56:49.272Z,51.6
2018-09-18T04:57:39.020Z,51.6
2018-09-18T04:58:29.470Z,51.6
2018-09-18T04:59:19.405Z,51.6
2018-09-18T05:00:09.220Z,51.6
2018-09-18T05:00:59.565Z,51.6
2018-09-18T05:01:49.350Z,51.6
2018-09-18T05:02:39.390Z,51.6
2018-09-18T05:03:29.477Z,51.6
2018-09-18T05:04:20.047Z,51.6
2018-09-18T05:05:09.362Z,51.6
2018-09-18T05:05:59.650Z,51.6
2018-09-18T05:06:49.999Z,51.6
2018-09-18T05:07:40.112Z,51.6
2018-09-18T05:25:22.986Z,51.4
2018-09-18T05:26:12.613Z,51.4
2018-09-18T05:27:02.409Z,51.4
2018-09-18T05:27:52.740Z,51.4
2018-09-18T05:28:42.255Z,51.4
2018-09-18T05:29:32.894Z,51.4
2018-09-18T05:30:23.296Z,51.4
2018-09-18T05:31:13.030Z,51.4
2018-09-18T05:32:03.073Z,51.4
2018-09-18T05:32:52.629Z,51.4
2018-09-18T05:33:43.777Z,51.4
2018-09-18T05:34:33.296Z,51.4
2018-09-18T05:35:22.754Z,51.4
2018-09-18T05:36:12.791Z,51.4
2018-09-18T05:37:03.191Z,51.4
2018-09-18T05:37:52.980Z,51.4
2018-09-18T05:38:43.319Z,51.3
2018-09-18T05:39:33.200Z,51.3
2018-09-18T05:40:23.667Z,51.3
2018-09-18T05:41:13.811Z,51.3
2018-09-18T05:42:04.193Z,51.3
2018-09-18T05:42:53.603Z,51.3
2018-09-18T05:43:43.937Z,51.3
2018-09-18T05:44:34.014Z,51.3
2018-09-18T05:45:24.142Z,51.3
2018-09-18T05:46:13.547Z,51.3
2018-09-18T05:47:04.244Z,51.3
2018-09-18T05:47:54.280Z,51.3
2018-09-18T05:48:43.781Z,51.3
2018-09-18T05:49:34.128Z,51.3
2018-09-18T05:50:24.542Z,51.3
2018-09-18T05:51:14.325Z,51.3
2018-09-18T05:52:04.838Z,51.3
2018-09-18T05:52:54.134Z,51.3
2018-09-18T05:53:44.641Z,51.3
2018-09-18T05:54:34.899Z,51.3
2018-09-18T05:55:24.830Z,51.3
2018-09-18T05:56:14.688Z,51.3
2018-09-18T05:57:04.677Z,51.2
2018-09-18T05:57:54.145Z,51.2
2018-09-18T05:58:45.050Z,51.2
2018-09-18T05:59:34.928Z,51.2
2018-09-18T06:00:25.203Z,51.2
2018-09-18T06:01:15.277Z,51.2
2018-09-18T06:02:06.011Z,51.2
2018-09-18T06:02:55.133Z,51.2
2018-09-18T06:03:44.952Z,51.2
2018-09-18T06:04:34.933Z,51.2
2018-09-18T06:05:25.255Z,51.1
2018-09-18T06:06:15.456Z,51.2
2018-09-18T06:07:05.427Z,51.1
2018-09-18T06:07:55.766Z,51.1
2018-09-18T06:08:45.542Z,51.1
2018-09-18T06:09:35.597Z,51.1
2018-09-18T06:10:25.863Z,51.1
2018-09-18T06:11:15.998Z,51.1
2018-09-18T06:12:06.081Z,51.1
2018-09-18T06:12:56.207Z,51.1
2018-09-18T06:13:45.892Z,51.1
2018-09-18T06:14:36.015Z,51.1
2018-09-18T06:15:25.749Z,51.1
2018-09-18T06:16:15.517Z,51.1
2018-09-18T06:17:06.431Z,51.1
2018-09-18T06:17:56.001Z,51.1
2018-09-18T06:18:47.462Z,51.1
2018-09-18T06:19:35.763Z,51.1
2018-09-18T06:20:26.669Z,51.1
2018-09-18T06:21:16.229Z,51.1
2018-09-18T06:22:07.114Z,51
2018-09-18T06:22:56.633Z,51
2018-09-18T06:23:46.953Z,51
2018-09-18T06:24:37.028Z,51
2018-09-18T06:25:27.093Z,51
2018-09-18T06:26:17.814Z,51
2018-09-18T06:27:07.526Z,51
2018-09-18T06:27:56.405Z,51
2018-09-18T06:28:47.343Z,51
2018-09-18T06:29:36.783Z,51
2018-09-18T06:30:26.865Z,50.9
2018-09-18T06:31:17.513Z,50.9
2018-09-18T06:32:07.876Z,50.9
2018-09-18T06:32:57.085Z,50.9
2018-09-18T06:33:47.399Z,50.9
2018-09-18T06:34:37.508Z,50.9
2018-09-18T06:35:27.801Z,50.9
2018-09-18T06:36:17.854Z,50.9
2018-09-18T06:37:07.906Z,50.9
2018-09-18T06:37:57.695Z,50.9
2018-09-18T06:38:48.038Z,50.9
2018-09-18T06:39:37.649Z,50.9
2018-09-18T06:40:27.910Z,50.9
2018-09-18T06:41:17.952Z,50.9
2018-09-18T06:42:08.613Z,50.9
2018-09-18T06:42:58.362Z,50.9
2018-09-18T06:43:48.188Z,50.9
2018-09-18T06:44:38.500Z,50.9
2018-09-18T06:45:28.574Z,50.9
2018-09-18T06:46:17.802Z,50.9
2018-09-18T06:47:08.399Z,50.9
2018-09-18T06:47:59.524Z,50.9
2018-09-18T06:48:48.804Z,50.8
2018-09-18T06:49:38.871Z,50.8
2018-09-18T06:50:28.654Z,50.8
2018-09-18T06:51:18.702Z,50.8
2018-09-18T06:52:09.066Z,50.8
2018-09-18T06:52:59.153Z,50.8
2018-09-18T06:53:48.440Z,50.8
2018-09-18T06:54:39.938Z,50.8
2018-09-18T06:55:29.294Z,50.8
2018-09-18T06:56:19.401Z,50.8
2018-09-18T06:57:08.856Z,50.8
2018-09-18T06:57:59.849Z,50.8
2018-09-18T06:58:49.879Z,50.8
2018-09-18T06:59:39.338Z,50.8
2018-09-18T07:00:29.694Z,50.8
2018-09-18T07:01:19.468Z,50.8
2018-09-18T07:02:09.795Z,50.8
2018-09-18T07:02:59.441Z,50.8
2018-09-18T07:03:49.653Z,50.8
2018-09-18T07:04:39.746Z,50.8
2018-09-18T07:05:29.978Z,50.8
2018-09-18T07:06:20.147Z,50.7
2018-09-18T07:07:09.650Z,50.7
2018-09-18T07:07:59.713Z,50.7
2018-09-18T07:08:50.318Z,50.7
2018-09-18T07:09:40.937Z,50.7
2018-09-18T07:10:30.163Z,50.7
2018-09-18T07:11:20.241Z,50.7
2018-09-18T07:12:10.593Z,50.7
2018-09-18T07:13:00.628Z,50.7
2018-09-18T07:13:50.427Z,50.7
2018-09-18T07:14:40.847Z,50.6
2018-09-18T07:15:30.558Z,50.6
2018-09-18T07:16:20.646Z,50.6
2018-09-18T07:17:10.956Z,50.6
2018-09-18T07:18:01.572Z,50.6
2018-09-18T07:18:50.533Z,50.6
2018-09-18T07:19:41.148Z,50.6
2018-09-18T07:20:31.200Z,50.6
2018-09-18T07:21:20.692Z,50.6
2018-09-18T07:22:11.032Z,50.6
2018-09-18T07:23:01.718Z,50.6
2018-09-18T07:23:50.695Z,50.6
2018-09-18T07:24:41.109Z,50.6
2018-09-18T07:25:31.592Z,50.6
2018-09-18T07:26:21.372Z,50.6
2018-09-18T07:27:11.693Z,50.6
2018-09-18T07:28:02.032Z,50.6
2018-09-18T07:28:51.552Z,50.6
2018-09-18T07:29:41.625Z,50.6
2018-09-18T07:30:31.737Z,50.6
2018-09-18T07:31:22.022Z,50.6
2018-09-18T07:32:12.074Z,50.5
2018-09-18T07:33:01.589Z,50.5
2018-09-18T07:33:52.702Z,50.5
2018-09-18T07:34:42.269Z,50.5
2018-09-18T07:35:31.481Z,50.5
2018-09-18T07:36:22.414Z,50.5
2018-09-18T07:37:12.451Z,50.5
2018-09-18T07:38:02.511Z,50.5
2018-09-18T07:38:52.329Z,50.5
2018-09-18T07:39:42.950Z,50.5
2018-09-18T07:40:32.778Z,50.5
2018-09-18T07:41:22.326Z,50.4
2018-09-18T07:42:12.076Z,50.4
2018-09-18T07:43:02.940Z,50.5
2018-09-18T07:43:52.687Z,50.4
2018-09-18T07:44:43.028Z,50.4
2018-09-18T07:45:33.106Z,50.4
2018-09-18T07:46:23.176Z,50.4
2018-09-18T07:47:12.936Z,50.4
2018-09-18T07:48:03.404Z,50.4
2018-09-18T07:48:53.403Z,50.4
2018-09-18T07:49:43.600Z,50.4
2018-09-18T07:50:33.144Z,50.4
2018-09-18T07:51:23.614Z,50.4
2018-09-18T07:52:13.862Z,50.4
2018-09-18T07:53:03.383Z,50.4
2018-09-18T07:53:53.168Z,50.4
2018-09-18T07:54:43.296Z,50.4
2018-09-18T07:55:33.958Z,50.4
2018-09-18T07:56:23.924Z,50.3
2018-09-18T07:57:13.993Z,50.3
2018-09-18T07:58:03.778Z,50.3
2018-09-18T07:58:53.551Z,50.4
2018-09-18T07:59:43.591Z,50.4
2018-09-18T08:00:33.658Z,50.4
2018-09-18T08:01:25.921Z,50.4
2018-09-18T08:02:14.395Z,50.4
2018-09-18T08:03:04.958Z,50.4
2018-09-18T08:03:54.311Z,50.5
2018-09-18T08:04:44.307Z,50.6
2018-09-18T08:05:34.657Z,50.6
2018-09-18T08:06:23.911Z,50.7
2018-09-18T08:07:14.463Z,50.8
2018-09-18T08:08:04.564Z,50.8
2018-09-18T08:08:54.611Z,50.8
2018-09-18T08:09:44.683Z,50.9
2018-09-18T08:10:34.699Z,50.9
2018-09-18T08:11:24.298Z,51
2018-09-18T08:12:14.885Z,51.1
2018-09-18T08:13:05.236Z,51.1
2018-09-18T08:13:54.962Z,51.2
2018-09-18T08:14:45.318Z,51.3
2018-09-18T08:15:35.142Z,51.3
2018-09-18T08:16:25.150Z,51.4
2018-09-18T08:17:15.562Z,51.4
2018-09-18T08:18:05.875Z,51.5
2018-09-18T08:18:55.742Z,51.6
2018-09-18T08:19:48.454Z,51.6
2018-09-18T08:20:35.208Z,51.7
2018-09-18T08:21:25.872Z,51.8
2018-09-18T08:22:15.915Z,51.8
2018-09-18T08:23:05.963Z,51.9
2018-09-18T08:24:45.789Z,52
2018-09-18T08:25:36.004Z,52.1
2018-09-18T08:26:26.501Z,52.1
2018-09-18T08:27:15.399Z,52.2
2018-09-18T08:28:06.339Z,52.3
2018-09-18T08:28:55.339Z,52.3
2018-09-18T08:30:36.576Z,52.4
2018-09-18T08:31:26.583Z,52.6
2018-09-18T08:32:16.380Z,52.6
2018-09-18T08:33:07.669Z,52.7
2018-09-18T08:33:56.501Z,52.8
2018-09-18T08:34:46.542Z,52.8
2018-09-18T08:35:36.602Z,52.9
2018-09-18T08:36:26.966Z,53
2018-09-18T08:37:16.479Z,53.1
2018-09-18T08:38:07.088Z,53.1
2018-09-18T08:38:57.216Z,53.3
2018-09-18T08:39:47.027Z,53.3
2018-09-18T08:40:37.070Z,53.4
2018-09-18T08:41:27.486Z,53.4
2018-09-18T08:42:16.365Z,53.5
2018-09-18T08:43:07.543Z,53.6
2018-09-18T08:43:57.645Z,53.7
2018-09-18T08:44:47.418Z,53.8
2018-09-18T08:45:37.839Z,53.8
2018-09-18T08:46:28.400Z,53.9
2018-09-18T08:47:18.039Z,53.9
2018-09-18T08:48:07.798Z,54
2018-09-18T08:48:58.040Z,54.1
2018-09-18T08:49:47.813Z,54.2
2018-09-18T08:50:38.321Z,54.3
2018-09-18T08:51:28.405Z,54.3
2018-09-18T08:52:17.780Z,54.4
2018-09-18T08:53:08.362Z,54.5
2018-09-18T08:53:57.852Z,54.6
2018-09-18T08:54:48.474Z,54.7
2018-09-18T08:55:38.867Z,54.8
2018-09-18T08:56:28.922Z,54.8
2018-09-18T08:57:18.347Z,54.9
2018-09-18T08:58:08.437Z,55
2018-09-18T08:58:58.597Z,55.1
2018-09-18T08:59:48.795Z,55.1
2018-09-18T09:00:38.559Z,55.3
2018-09-18T09:01:29.449Z,55.3
2018-09-18T09:02:19.478Z,55.4
2018-09-18T09:03:08.725Z,55.5
2018-09-18T09:03:59.511Z,55.6
2018-09-18T09:04:49.300Z,55.6
2018-09-18T09:05:39.185Z,55.8
2018-09-18T09:06:29.890Z,55.8
2018-09-18T09:07:19.152Z,55.9
2018-09-18T09:08:10.624Z,55.9
2018-09-18T09:09:01.193Z,56.1
2018-09-18T09:09:48.987Z,56.1
2018-09-18T09:10:41.052Z,56.2
2018-09-18T09:11:29.462Z,56.3
2018-09-18T09:12:20.168Z,56.4
2018-09-18T09:13:09.278Z,56.5
2018-09-18T09:13:59.921Z,56.6
2018-09-18T09:14:50.084Z,56.6
2018-09-18T09:15:40.372Z,56.8
2018-09-18T09:16:29.720Z,56.8
2018-09-18T09:17:20.268Z,56.9
2018-09-18T09:18:12.016Z,57
2018-09-18T09:19:00.321Z,57.1
2018-09-18T09:19:50.390Z,57.1
2018-09-18T09:20:40.463Z,57.2
2018-09-18T09:21:30.565Z,57.3
2018-09-18T09:22:21.364Z,57.4
2018-09-18T09:23:11.232Z,57.4
2018-09-18T09:39:55.290Z,59.1
2018-09-18T09:40:44.790Z,59.2
2018-09-18T09:41:35.084Z,59.3
2018-09-18T09:42:25.574Z,59.4
2018-09-18T09:43:14.766Z,59.4
2018-09-18T09:44:05.038Z,59.5
2018-09-18T09:44:55.813Z,59.6
2018-09-18T09:45:45.154Z,59.7
2018-09-18T09:46:35.219Z,59.8
2018-09-18T09:47:25.322Z,59.8
2018-09-18T09:48:15.649Z,59.9
2018-09-18T09:49:05.681Z,59.9
2018-09-18T09:49:56.016Z,60.1
2018-09-18T09:50:45.248Z,60.1
2018-09-18T09:51:36.304Z,60.3
2018-09-18T09:52:25.344Z,60.3
2018-09-18T09:53:15.529Z,60.4
2018-09-18T09:54:05.551Z,60.5
2018-09-18T09:54:56.163Z,60.6
2018-09-18T09:55:46.193Z,60.7
2018-09-18T09:56:35.998Z,60.8
2018-09-18T09:57:26.049Z,60.8
2018-09-18T09:58:16.151Z,60.9
2018-09-18T09:59:06.474Z,60.9
2018-09-18T09:59:56.828Z,61
2018-09-18T10:00:46.309Z,61.1
2018-09-18T10:01:36.075Z,61.2
2018-09-18T10:02:26.473Z,61.3
2018-09-18T10:03:16.257Z,61.3
2018-09-18T10:04:06.278Z,61.4
2018-09-18T10:04:56.353Z,61.5
2018-09-18T10:05:46.695Z,61.6
2018-09-18T10:06:37.047Z,61.6
2018-09-18T10:07:26.834Z,61.7
2018-09-18T10:08:16.590Z,61.8
2018-09-18T10:09:06.675Z,61.8
2018-09-18T10:09:57.003Z,61.9
2018-09-18T10:10:48.155Z,62
2018-09-18T10:11:36.852Z,62.1
2018-09-18T10:12:26.949Z,62.2
2018-09-18T10:13:17.640Z,62.3
2018-09-18T10:14:07.338Z,62.4
2018-09-18T10:14:57.523Z,62.4
2018-09-18T10:15:47.547Z,62.5
2018-09-18T10:16:37.533Z,62.6
2018-09-18T10:17:27.867Z,62.6
2018-09-18T10:18:18.931Z,62.7
2018-09-18T10:19:08.011Z,62.8
2018-09-18T10:19:58.033Z,62.8
2018-09-18T10:20:47.890Z,62.9
2018-09-18T10:21:37.172Z,63
2018-09-18T10:22:28.252Z,63.1
2018-09-18T10:23:18.223Z,63.1
2018-09-18T10:24:08.269Z,63.2
2018-09-18T10:24:59.128Z,63.3
2018-09-18T10:25:48.786Z,63.3
2018-09-18T10:26:39.219Z,63.4
2018-09-18T10:27:28.245Z,63.5
2018-09-18T10:28:18.455Z,63.5
2018-09-18T10:29:08.957Z,63.6
2018-09-18T10:29:58.652Z,63.7
2018-09-18T10:30:49.114Z,63.8
2018-09-18T10:31:38.444Z,63.8
2018-09-18T10:32:28.842Z,63.9
2018-09-18T10:33:19.231Z,63.9
2018-09-18T10:34:09.061Z,64
2018-09-18T10:34:58.796Z,64.1
2018-09-18T10:35:48.827Z,64.1
2018-09-18T10:36:39.318Z,64.2
2018-09-18T10:37:29.506Z,64.3
2018-09-18T10:38:19.289Z,64.3
2018-09-18T10:39:09.699Z,64.4
2018-09-18T10:39:59.100Z,64.4
2018-09-18T10:40:49.943Z,64.5
2018-09-18T10:41:40.015Z,64.6
2018-09-18T10:42:29.877Z,64.6
2018-09-18T10:43:20.026Z,64.7
2018-09-18T10:44:09.713Z,64.8
2018-09-18T10:44:59.804Z,64.8
2018-09-18T10:45:49.698Z,64.8
2018-09-18T10:46:40.211Z,64.9
2018-09-18T10:47:29.693Z,64.9
2018-09-18T10:48:19.149Z,65
2018-09-18T10:49:10.288Z,65.1
2018-09-18T10:50:00.083Z,65.1
2018-09-18T10:50:49.851Z,65.2
2018-09-18T10:51:39.918Z,65.3
2018-09-18T10:52:30.440Z,65.3
2018-09-18T10:53:20.945Z,65.4
2018-09-18T10:54:10.753Z,65.4
2018-09-18T10:55:00.450Z,65.5
2018-09-18T10:55:50.890Z,65.6
2018-09-18T10:56:40.895Z,65.6
2018-09-18T10:57:30.653Z,65.7
2018-09-18T10:58:21.033Z,65.8
2018-09-18T10:59:11.000Z,65.8
2018-09-18T11:00:00.985Z,65.9
2018-09-18T11:00:51.042Z,65.9
2018-09-18T11:01:41.654Z,66
2018-09-18T11:02:31.435Z,66
2018-09-18T11:03:21.209Z,66.1
2018-09-18T11:04:11.218Z,66.1
2018-09-18T11:05:01.980Z,66.2
2018-09-18T11:05:51.453Z,66.3
2018-09-18T11:06:41.856Z,66.3
2018-09-18T11:07:31.789Z,66.4
2018-09-18T11:08:21.413Z,66.4
2018-09-18T11:09:12.361Z,66.4
2018-09-18T11:10:02.766Z,66.5
2018-09-18T11:10:51.213Z,66.6
2018-09-18T11:11:42.350Z,66.6
2018-09-18T11:12:32.709Z,66.7
2018-09-18T11:13:22.648Z,66.8
2018-09-18T11:14:14.858Z,66.8
2018-09-18T11:15:02.219Z,66.8
2018-09-18T11:15:53.503Z,66.9
2018-09-18T11:16:42.682Z,66.9
2018-09-18T11:17:32.217Z,67
2018-09-18T11:18:22.042Z,67.1
2018-09-18T11:19:12.850Z,67.1
2018-09-18T11:20:02.936Z,67.1
2018-09-18T11:20:52.735Z,67.2
2018-09-18T11:21:43.015Z,67.3
2018-09-18T11:22:33.828Z,67.3
2018-09-18T11:23:23.090Z,67.4
2018-09-18T11:24:12.739Z,67.4
2018-09-18T11:25:04.655Z,67.4
2018-09-18T11:25:53.457Z,67.5
2018-09-18T11:26:42.672Z,67.6
2018-09-18T11:27:33.143Z,67.6
2018-09-18T11:28:23.563Z,67.7
2018-09-18T11:29:13.164Z,67.7
2018-09-18T11:30:03.235Z,67.8
2018-09-18T11:30:53.547Z,67.8
2018-09-18T11:31:43.740Z,67.9
2018-09-18T11:32:34.034Z,67.9
2018-09-18T11:33:23.226Z,68
2018-09-18T11:34:13.606Z,68
2018-09-18T11:35:03.683Z,68.1
2018-09-18T11:35:53.843Z,68.1
2018-09-18T11:36:43.922Z,68.2
2018-09-18T11:37:33.147Z,68.3
2018-09-18T11:38:23.772Z,68.3
2018-09-18T11:39:13.595Z,68.3
2018-09-18T11:40:03.895Z,68.4
2018-09-18T11:40:53.395Z,68.4
2018-09-18T11:41:44.297Z,68.5
2018-09-18T11:42:34.390Z,68.6
2018-09-18T11:43:24.441Z,68.6
2018-09-18T11:44:14.238Z,68.7
2018-09-18T11:45:04.000Z,68.7
2018-09-18T11:45:56.444Z,68.8
2018-09-18T11:46:45.651Z,68.8
2018-09-18T11:47:34.747Z,68.9
2018-09-18T11:48:24.826Z,68.9
2018-09-18T11:49:14.324Z,68.9
2018-09-18T11:50:04.370Z,69
2018-09-18T11:50:54.475Z,69.1
2018-09-18T11:51:45.123Z,69.1
2018-09-18T11:52:35.187Z,69.1
2018-09-18T11:53:25.198Z,69.2
2018-09-18T11:54:15.411Z,69.2
2018-09-18T11:55:05.064Z,69.3
2018-09-18T11:55:54.808Z,69.3
2018-09-18T11:56:46.294Z,69.4
2018-09-18T11:57:35.232Z,69.4
2018-09-18T11:58:25.938Z,69.5
2018-09-18T11:59:15.348Z,69.6
2018-09-18T12:00:05.460Z,69.6
2018-09-18T12:00:55.489Z,69.6
2018-09-18T12:01:45.819Z,69.6
2018-09-18T12:02:35.874Z,69.7
2018-09-18T12:03:25.974Z,69.8
2018-09-18T12:04:15.477Z,69.8
2018-09-18T12:05:07.002Z,69.8
2018-09-18T12:05:55.647Z,69.9
2018-09-18T12:06:45.653Z,69.9
2018-09-18T12:07:35.720Z,69.9
2018-09-18T12:08:26.356Z,70
2018-09-18T12:09:17.462Z,70
2018-09-18T12:10:06.504Z,70.1
2018-09-18T12:10:56.263Z,70.1
2018-09-18T12:11:46.031Z,70.1
2018-09-18T12:12:36.946Z,70.2
2018-09-18T12:13:26.730Z,70.2
2018-09-18T12:14:16.585Z,70.3
2018-09-18T12:15:06.868Z,70.3
2018-09-18T12:15:56.405Z,70.3
2018-09-18T12:16:46.135Z,70.4
2018-09-18T12:17:37.083Z,70.4
2018-09-18T12:18:26.893Z,70.4
2018-09-18T12:19:16.540Z,70.4